createdAt,value
2019-02-16T00:00:56.993Z,189.07
2019-02-16T00:03:28.017Z,182.90
2019-02-16T00:05:59.025Z,205.67
2019-02-16T00:08:30.067Z,188.00
2019-02-16T00:11:00.945Z,182.17
2019-02-16T00:13:31.919Z,168.47
2019-02-16T00:16:02.873Z,168.73
2019-02-16T00:18:33.413Z,175.17
2019-02-16T00:21:04.482Z,170.60
2019-02-16T00:23:35.420Z,182.20
2019-02-16T00:26:06.301Z,168.00
2019-02-16T00:28:36.910Z,167.33
2019-02-16T00:31:07.516Z,166.07
2019-02-16T00:33:38.539Z,171.67
2019-02-16T00:36:09.077Z,175.73
2019-02-16T00:38:39.748Z,174.13
2019-02-16T00:41:10.426Z,183.50
2019-02-16T00:43:41.092Z,176.33
2019-02-16T00:46:11.883Z,171.60
2019-02-16T00:48:42.676Z,174.00
2019-02-16T00:51:14.101Z,164.20
2019-02-16T00:53:44.835Z,175.53
2019-02-16T00:56:16.456Z,160.37
2019-02-16T00:58:47.120Z,138.73
2019-02-16T01:01:17.688Z,154.37
2019-02-16T01:03:48.271Z,167.83
2019-02-16T01:06:19.726Z,163.07
2019-02-16T01:08:50.493Z,173.03
2019-02-16T01:11:21.198Z,159.90
2019-02-16T01:13:51.885Z,157.07
2019-02-16T01:16:22.392Z,164.03
2019-02-16T01:18:53.082Z,159.37
2019-02-16T01:21:23.621Z,146.70
2019-02-16T01:23:54.553Z,163.60
2019-02-16T01:26:25.121Z,152.17
2019-02-16T01:28:56.207Z,149.40
2019-02-16T01:31:26.835Z,157.67
2019-02-16T01:33:58.223Z,147.70
2019-02-16T01:36:28.764Z,142.77
2019-02-16T01:38:59.403Z,138.43
2019-02-16T01:41:29.943Z,128.13
2019-02-16T01:44:00.730Z,141.40
2019-02-16T01:46:31.484Z,119.27
2019-02-16T01:49:02.209Z,131.27
2019-02-16T01:51:32.834Z,130.07
2019-02-16T01:54:03.746Z,142.03
2019-02-16T01:56:34.669Z,140.00
2019-02-16T01:59:05.682Z,130.57
2019-02-16T02:01:36.129Z,145.13
2019-02-16T02:04:07.087Z,156.23
2019-02-16T02:06:37.735Z,150.40
2019-02-16T02:09:08.564Z,148.37
2019-02-16T02:11:39.818Z,131.20
2019-02-16T02:14:11.522Z,150.20
2019-02-16T02:16:42.358Z,159.47
2019-02-16T02:19:12.990Z,156.13
2019-02-16T02:21:43.474Z,156.47
2019-02-16T02:24:13.949Z,161.63
2019-02-16T02:26:44.591Z,169.20
2019-02-16T02:29:15.284Z,162.87
2019-02-16T02:31:45.877Z,152.07
2019-02-16T02:34:16.393Z,149.50
2019-02-16T02:36:47.042Z,151.53
2019-02-16T02:39:17.858Z,149.33
2019-02-16T02:41:48.442Z,168.80
2019-02-16T02:44:19.417Z,174.77
2019-02-16T02:46:50.252Z,152.67
2019-02-16T02:49:20.993Z,170.43
2019-02-16T02:51:52.603Z,159.60
2019-02-16T02:54:25.059Z,168.33
2019-02-16T02:56:55.862Z,162.83
2019-02-16T02:59:26.817Z,155.30
2019-02-16T03:01:57.595Z,154.73
2019-02-16T03:04:28.187Z,178.77
2019-02-16T03:06:59.129Z,158.53
2019-02-16T03:09:29.799Z,159.90
2019-02-16T03:12:00.689Z,164.07
2019-02-16T03:14:31.383Z,142.73
2019-02-16T03:17:02.101Z,144.00
2019-02-16T03:19:32.619Z,155.67
2019-02-16T03:22:03.480Z,138.57
2019-02-16T03:24:34.142Z,147.10
2019-02-16T03:27:40.304Z,155.17
2019-02-16T03:30:33.897Z,137.83
2019-02-16T03:33:38.577Z,135.33
2019-02-16T03:36:49.667Z,158.17
2019-02-16T03:39:30.416Z,141.77
2019-02-16T03:42:01.400Z,143.43
2019-02-16T03:44:33.079Z,147.77
2019-02-16T03:47:04.117Z,143.27
2019-02-16T03:49:35.062Z,130.13
2019-02-16T03:52:13.345Z,154.20
2019-02-16T03:54:38.378Z,152.03
2019-02-16T03:57:10.266Z,164.50
2019-02-16T03:59:41.112Z,146.67
2019-02-16T04:02:12.007Z,153.63
2019-02-16T04:04:42.626Z,151.30
2019-02-16T04:07:13.103Z,135.23
2019-02-16T04:09:43.907Z,143.63
2019-02-16T04:12:14.636Z,147.17
2019-02-16T04:14:45.492Z,137.70
2019-02-16T04:17:16.114Z,143.27
2019-02-16T04:19:46.963Z,133.53
2019-02-16T04:22:24.616Z,140.53
2019-02-16T04:24:50.898Z,161.90
2019-02-16T04:27:21.775Z,154.37
2019-02-16T04:29:53.432Z,149.33
2019-02-16T04:32:24.125Z,147.80
2019-02-16T04:34:54.717Z,144.80
2019-02-16T04:37:25.915Z,148.37
2019-02-16T04:39:56.703Z,145.63
2019-02-16T04:42:27.453Z,168.37
2019-02-16T04:44:58.167Z,158.33
2019-02-16T04:47:29.323Z,154.87
2019-02-16T04:50:00.288Z,165.97
2019-02-16T04:52:34.691Z,154.33
2019-02-16T04:55:04.104Z,174.90
2019-02-16T04:57:34.807Z,162.80
2019-02-16T05:00:05.829Z,149.60
2019-02-16T05:02:36.529Z,163.93
2019-02-16T05:05:07.604Z,169.57
2019-02-16T05:07:38.309Z,161.90
2019-02-16T05:10:09.928Z,168.20
2019-02-16T05:12:40.820Z,174.87
2019-02-16T05:15:11.499Z,159.20
2019-02-16T05:17:42.466Z,176.30
2019-02-16T05:20:13.090Z,177.83
2019-02-16T05:22:44.929Z,174.67
2019-02-16T05:25:15.997Z,156.03
2019-02-16T05:27:46.733Z,157.17
2019-02-16T05:36:17.870Z,168.97
2019-02-16T05:38:48.631Z,189.37
2019-02-16T05:41:19.332Z,197.37
2019-02-16T05:43:49.809Z,180.57
2019-02-16T05:46:20.803Z,196.23
2019-02-16T05:48:51.228Z,186.17
2019-02-16T05:51:21.747Z,177.77
2019-02-16T05:53:52.251Z,170.47
2019-02-16T05:56:22.700Z,169.30
2019-02-16T05:58:53.882Z,169.03
2019-02-16T06:01:24.484Z,148.87
2019-02-16T06:03:55.083Z,171.83
2019-02-16T06:06:26.003Z,186.63
2019-02-16T06:08:56.537Z,184.63
2019-02-16T06:11:27.112Z,174.47
2019-02-16T06:13:57.893Z,172.87
2019-02-16T06:16:28.715Z,181.90
2019-02-16T06:18:59.347Z,175.30
2019-02-16T06:21:30.352Z,172.20
2019-02-16T06:24:01.114Z,183.03
2019-02-16T06:26:32.726Z,164.97
2019-02-16T06:29:03.345Z,171.53
2019-02-16T06:31:33.908Z,156.17
2019-02-16T06:34:04.340Z,149.03
2019-02-16T06:36:42.548Z,150.13
2019-02-16T06:39:13.036Z,161.70
2019-02-16T06:41:43.827Z,158.07
2019-02-16T06:44:14.847Z,144.77
2019-02-16T06:46:45.307Z,146.40
2019-02-16T06:49:16.302Z,140.60
2019-02-16T06:51:47.293Z,158.03
2019-02-16T06:54:17.955Z,165.83
2019-02-16T06:57:08.862Z,158.67
2019-02-16T06:59:39.652Z,151.43
2019-02-16T07:02:10.413Z,149.47
2019-02-16T07:04:41.060Z,150.83
2019-02-16T07:07:11.793Z,144.53
2019-02-16T07:09:42.687Z,150.77
2019-02-16T07:12:13.611Z,150.70
2019-02-16T07:14:44.237Z,149.73
2019-02-16T07:17:37.167Z,157.67
2019-02-16T07:20:08.538Z,147.60
2019-02-16T07:22:39.317Z,150.93
2019-02-16T07:25:10.503Z,140.67
2019-02-16T07:27:41.194Z,135.27
2019-02-16T07:30:12.250Z,170.70
2019-02-16T07:32:43.035Z,141.07
2019-02-16T07:35:13.895Z,139.23
2019-02-16T07:37:44.516Z,137.40
2019-02-16T07:40:15.116Z,137.23
2019-02-16T07:42:57.320Z,127.53
2019-02-16T07:45:38.895Z,128.43
2019-02-16T07:48:17.557Z,120.90
2019-02-16T07:50:56.822Z,132.30
2019-02-16T07:53:52.378Z,117.17
2019-02-16T07:56:29.906Z,112.57
2019-02-16T07:59:22.710Z,113.60
2019-02-16T08:02:17.856Z,111.33
2019-02-16T08:04:55.677Z,107.53
2019-02-16T08:07:54.852Z,95.73
2019-02-16T08:10:47.384Z,96.33
2019-02-16T08:13:35.676Z,105.03
2019-02-16T08:16:25.156Z,94.97
2019-02-16T08:19:13.395Z,99.00
2019-02-16T08:22:11.759Z,82.10
2019-02-16T08:25:13.490Z,84.80
2019-02-16T08:27:53.810Z,80.73
2019-02-16T08:30:41.917Z,75.57
2019-02-16T08:33:21.345Z,90.20
2019-02-16T08:36:16.833Z,77.27
2019-02-16T08:39:10.518Z,72.40
2019-02-16T08:42:15.411Z,80.37
2019-02-16T08:44:54.963Z,79.53
2019-02-16T08:47:44.811Z,69.23
2019-02-16T08:50:29.550Z,67.50
2019-02-16T08:53:14.380Z,62.73
2019-02-16T08:56:01.099Z,56.73
2019-02-16T08:58:40.048Z,55.13
2019-02-16T09:01:44.882Z,64.30
2019-02-16T09:04:37.569Z,60.77
2019-02-16T09:07:27.127Z,53.83
2019-02-16T09:10:16.722Z,56.33
2019-02-16T09:12:51.835Z,58.50
2019-02-16T09:15:40.316Z,68.10
2019-02-16T09:18:32.722Z,51.97
2019-02-16T09:21:15.163Z,49.77
2019-02-16T09:24:03.461Z,45.90
2019-02-16T09:26:52.984Z,46.50
2019-02-16T09:29:45.740Z,45.13
2019-02-16T09:32:50.780Z,46.07
2019-02-16T09:35:28.030Z,49.23
2019-02-16T09:38:07.855Z,42.23
2019-02-16T09:40:56.514Z,41.93
2019-02-16T09:43:58.188Z,47.17
2019-02-16T09:46:46.703Z,43.50
2019-02-16T09:49:39.178Z,40.13
2019-02-16T09:52:27.739Z,37.00
2019-02-16T09:55:13.192Z,41.70
2019-02-16T09:58:11.377Z,36.70
2019-02-16T10:00:48.126Z,43.33
2019-02-16T10:03:56.022Z,38.00
2019-02-16T10:06:48.998Z,35.90
2019-02-16T10:09:34.277Z,41.83
2019-02-16T10:12:29.683Z,33.73
2019-02-16T10:15:17.664Z,47.37
2019-02-16T10:18:13.041Z,34.13
2019-02-16T10:21:11.801Z,36.07
2019-02-16T10:24:01.481Z,35.13
2019-02-16T10:26:49.977Z,38.30
2019-02-16T10:29:38.298Z,63.97
2019-02-16T10:32:26.494Z,29.67
2019-02-16T10:35:05.593Z,30.73
2019-02-16T10:37:55.294Z,39.27
2019-02-16T10:40:54.794Z,27.97
2019-02-16T10:43:51.402Z,28.93
2019-02-16T10:46:39.925Z,30.30
2019-02-16T10:49:29.452Z,30.23
2019-02-16T10:52:06.170Z,28.73
2019-02-16T10:54:54.932Z,33.50
2019-02-16T10:57:43.184Z,35.03
2019-02-16T11:00:32.804Z,42.80
2019-02-16T11:03:10.000Z,27.70
2019-02-16T11:06:02.872Z,28.07
2019-02-16T11:08:50.459Z,35.70
2019-02-16T11:11:51.873Z,31.60
2019-02-16T11:14:50.230Z,29.50
2019-02-16T11:17:36.903Z,30.00
2019-02-16T11:20:19.497Z,48.47
2019-02-16T11:23:09.163Z,28.60
2019-02-16T11:25:57.871Z,30.37
2019-02-16T11:28:47.398Z,40.40
2019-02-16T11:31:37.467Z,34.37
2019-02-16T11:34:27.386Z,34.27
2019-02-16T11:37:22.389Z,31.87
2019-02-16T11:40:08.401Z,32.03
2019-02-16T11:43:03.282Z,26.30
2019-02-16T11:46:11.056Z,27.53
2019-02-16T11:49:09.611Z,45.73
2019-02-16T11:52:08.119Z,31.20
2019-02-16T11:54:57.203Z,40.83
2019-02-16T11:57:45.942Z,32.07
2019-02-16T12:00:53.854Z,33.37
2019-02-16T12:03:58.645Z,32.13
2019-02-16T12:06:43.028Z,41.37
2019-02-16T12:09:31.286Z,52.63
2019-02-16T12:12:14.030Z,40.47
2019-02-16T12:14:52.962Z,43.47
2019-02-16T12:17:48.532Z,46.47
2019-02-16T12:23:24.305Z,34.57
2019-02-16T12:26:06.150Z,36.87
2019-02-16T12:28:56.174Z,32.10
2019-02-16T12:31:34.205Z,40.23
2019-02-16T12:34:10.864Z,45.10
2019-02-16T12:37:19.358Z,43.73
2019-02-16T12:39:59.349Z,46.03
2019-02-16T12:43:00.554Z,39.57
2019-02-16T12:45:38.825Z,30.47
2019-02-16T12:48:23.515Z,45.03
2019-02-16T12:51:07.572Z,35.93
2019-02-16T12:54:00.181Z,41.83
2019-02-16T12:56:52.666Z,29.63
2019-02-16T12:59:42.297Z,30.17
2019-02-16T13:02:29.822Z,27.53
2019-02-16T13:05:25.160Z,38.50
2019-02-16T13:08:26.750Z,32.87
2019-02-16T13:11:16.345Z,28.10
2019-02-16T13:14:17.931Z,28.30
2019-02-16T13:17:07.324Z,32.17
2019-02-16T13:19:59.667Z,27.73
2019-02-16T13:22:52.289Z,40.93
2019-02-16T13:25:42.774Z,21.53
2019-02-16T13:28:43.848Z,22.47
2019-02-16T13:31:24.344Z,24.20
2019-02-16T13:34:12.465Z,18.63
2019-02-16T13:36:54.466Z,28.80
2019-02-16T13:39:34.969Z,19.73
2019-02-16T13:42:16.788Z,20.60
2019-02-16T13:45:01.038Z,21.33
2019-02-16T13:47:51.500Z,22.80
2019-02-16T13:50:41.008Z,21.03
2019-02-16T13:53:36.614Z,20.00
2019-02-16T13:56:26.046Z,25.20
2019-02-16T13:59:11.583Z,16.53
2019-02-16T14:01:55.500Z,20.60
2019-02-16T14:04:37.661Z,11.47
2019-02-16T14:07:27.162Z,18.47
2019-02-16T14:10:11.565Z,13.57
2019-02-16T14:13:09.933Z,23.27
2019-02-16T14:15:59.606Z,18.37
2019-02-16T14:18:30.077Z,17.37
2019-02-16T14:21:00.753Z,23.70
2019-02-16T14:23:31.527Z,21.70
2019-02-16T14:26:02.379Z,27.87
2019-02-16T14:28:32.925Z,16.00
2019-02-16T14:31:03.641Z,18.63
2019-02-16T14:33:34.280Z,23.30
2019-02-16T14:36:05.014Z,16.57
2019-02-16T14:38:57.339Z,22.20
2019-02-16T14:41:28.072Z,12.63
2019-02-16T14:43:58.791Z,18.37
2019-02-16T14:46:29.397Z,15.20
2019-02-16T14:49:00.077Z,15.47
2019-02-16T14:51:30.789Z,16.93
2019-02-16T14:54:01.351Z,24.47
2019-02-16T14:56:32.030Z,18.20
2019-02-16T14:59:02.948Z,22.33
2019-02-16T15:01:33.663Z,17.73
2019-02-16T15:04:04.422Z,16.47
2019-02-16T15:06:36.498Z,18.63
2019-02-16T15:09:07.480Z,22.17
2019-02-16T15:11:38.460Z,20.77
2019-02-16T15:14:09.017Z,14.97
2019-02-16T15:16:39.794Z,15.10
2019-02-16T15:19:10.424Z,16.97
2019-02-16T15:21:40.953Z,17.80
2019-02-16T15:24:11.526Z,16.87
2019-02-16T15:26:42.072Z,18.67
2019-02-16T15:29:12.666Z,30.23
2019-02-16T15:31:43.170Z,23.00
2019-02-16T15:34:13.798Z,26.43
2019-02-16T15:36:44.532Z,24.30
2019-02-16T15:39:15.470Z,27.07
2019-02-16T15:41:46.068Z,31.60
2019-02-16T15:44:16.639Z,33.83
2019-02-16T15:46:47.223Z,28.33
2019-02-16T15:49:17.861Z,37.53
2019-02-16T15:51:48.363Z,33.57
2019-02-16T15:54:19.021Z,36.90
2019-02-16T15:56:50.944Z,36.80
2019-02-16T15:59:21.854Z,46.57
2019-02-16T16:01:52.417Z,28.53
2019-02-16T16:04:22.932Z,32.43
2019-02-16T16:06:53.463Z,42.73
2019-02-16T16:09:32.121Z,43.53
2019-02-16T16:12:10.774Z,39.43
2019-02-16T16:17:58.578Z,32.27
2019-02-16T16:21:02.904Z,31.67
2019-02-16T16:23:48.076Z,36.27
2019-02-16T16:26:40.237Z,37.13
2019-02-16T16:29:37.142Z,40.30
2019-02-16T16:32:31.061Z,48.60
2019-02-16T16:35:19.101Z,46.17
2019-02-16T16:37:56.425Z,42.70
2019-02-16T16:40:42.616Z,42.77
2019-02-16T16:43:38.418Z,48.83
2019-02-16T16:46:27.856Z,45.20
2019-02-16T16:49:23.168Z,40.73
2019-02-16T16:52:10.016Z,55.10
2019-02-16T16:55:02.886Z,44.50
2019-02-16T16:57:43.121Z,41.20
2019-02-16T17:00:35.664Z,50.63
2019-02-16T17:03:27.961Z,49.67
2019-02-16T17:06:15.869Z,42.77
2019-02-16T17:08:59.449Z,49.50
2019-02-16T17:11:49.365Z,55.00
2019-02-16T17:14:32.386Z,74.43
2019-02-16T17:17:20.451Z,72.60
2019-02-16T17:20:04.496Z,85.47
2019-02-16T17:22:56.813Z,86.47
2019-02-16T17:25:44.773Z,82.70
2019-02-16T17:28:29.016Z,98.40
2019-02-16T17:31:30.541Z,81.03
2019-02-16T17:34:19.424Z,80.13
2019-02-16T17:37:07.424Z,78.23
2019-02-16T17:39:59.869Z,69.80
2019-02-16T17:42:41.503Z,67.90
2019-02-16T17:45:40.842Z,78.73
2019-02-16T17:48:33.111Z,75.77
2019-02-16T17:51:28.363Z,64.43
2019-02-16T17:54:26.539Z,74.47
2019-02-16T17:57:19.037Z,60.67
2019-02-16T18:00:26.499Z,68.17
2019-02-16T18:03:13.047Z,70.00
2019-02-16T18:05:53.585Z,60.37
2019-02-16T18:08:45.899Z,67.50
2019-02-16T18:11:44.573Z,64.57
2019-02-16T18:14:45.875Z,60.90
2019-02-16T18:17:38.940Z,64.93
2019-02-16T18:20:31.531Z,65.60
2019-02-16T18:23:19.872Z,66.40
2019-02-16T18:26:15.441Z,82.70
2019-02-16T18:29:13.680Z,81.90
2019-02-16T18:31:58.655Z,78.37
2019-02-16T18:34:49.680Z,68.63
2019-02-16T18:37:38.060Z,86.13
2019-02-16T18:40:25.684Z,90.33
2019-02-16T18:43:15.240Z,92.47
2019-02-16T18:46:07.433Z,96.37
2019-02-16T18:49:05.941Z,95.33
2019-02-16T18:52:01.443Z,98.53
2019-02-16T18:54:54.025Z,93.67
2019-02-16T18:57:35.165Z,97.57
2019-02-16T19:00:30.960Z,118.37
2019-02-16T19:03:12.351Z,156.93
2019-02-16T19:05:49.151Z,119.23
2019-02-16T19:08:53.562Z,147.03
2019-02-16T19:11:49.524Z,139.93
2019-02-16T19:14:38.947Z,150.40
2019-02-16T19:17:25.477Z,133.10
2019-02-16T19:20:13.632Z,172.80
2019-02-16T19:23:03.115Z,161.23
2019-02-16T19:25:47.136Z,142.30
2019-02-16T19:28:27.887Z,142.17
2019-02-16T19:31:17.510Z,151.40
2019-02-16T19:34:19.097Z,134.80
2019-02-16T19:37:11.435Z,149.73
2019-02-16T19:39:59.293Z,171.97
2019-02-16T19:42:39.105Z,137.77
2019-02-16T19:45:22.821Z,165.73
2019-02-16T19:48:16.743Z,167.27
2019-02-16T19:51:04.865Z,173.47
2019-02-16T19:53:53.053Z,213.20
2019-02-16T19:56:46.999Z,189.23
2019-02-16T19:59:30.077Z,526.37
2019-02-16T20:02:22.554Z,202.63
2019-02-16T20:05:30.023Z,184.80
2019-02-16T20:08:28.296Z,195.97
2019-02-16T20:11:23.816Z,166.90
2019-02-16T20:14:16.045Z,178.50
2019-02-16T20:17:08.224Z,202.90
2019-02-16T20:19:44.348Z,164.20
2019-02-16T20:22:36.181Z,198.20
2019-02-16T20:25:22.782Z,213.73
2019-02-16T20:28:27.176Z,186.90
2019-02-16T20:31:19.555Z,228.97
2019-02-16T20:34:02.194Z,195.03
2019-02-16T20:36:51.805Z,203.13
2019-02-16T20:39:50.178Z,180.77
2019-02-16T20:42:45.534Z,204.47
2019-02-16T20:45:21.058Z,207.33
2019-02-16T20:48:13.346Z,201.27
2019-02-16T20:50:58.018Z,206.73
2019-02-16T20:53:48.385Z,210.90
2019-02-16T20:56:37.034Z,193.57
2019-02-16T20:59:41.621Z,202.10
2019-02-16T21:02:34.125Z,168.10
2019-02-16T21:05:15.683Z,190.63
2019-02-16T21:08:03.494Z,189.67
2019-02-16T21:11:11.025Z,203.43
2019-02-16T21:13:52.916Z,210.93
2019-02-16T21:16:40.915Z,205.20
2019-02-16T21:19:33.422Z,215.63
2019-02-16T21:22:21.368Z,209.93
2019-02-16T21:24:57.590Z,191.33
2019-02-16T21:27:47.024Z,201.20
2019-02-16T21:30:34.826Z,203.33
2019-02-16T21:33:18.917Z,212.77
2019-02-16T21:35:57.996Z,208.10
2019-02-16T21:38:45.222Z,222.20
2019-02-16T21:41:30.367Z,218.33
2019-02-16T21:44:22.641Z,202.30
2019-02-16T21:47:05.819Z,218.07
2019-02-16T21:49:58.074Z,231.73
2019-02-16T21:53:00.509Z,229.93
2019-02-16T21:55:37.380Z,250.90
2019-02-16T21:58:36.044Z,252.70
2019-02-16T22:01:24.022Z,232.60
2019-02-16T22:04:02.948Z,215.77
2019-02-16T22:06:47.187Z,238.83
2019-02-16T22:09:35.563Z,232.63
2019-02-16T22:12:15.178Z,242.40
2019-02-16T22:14:45.742Z,276.10
2019-02-16T22:17:16.430Z,268.33
2019-02-16T22:19:47.352Z,298.77
2019-02-16T22:22:18.082Z,288.77
2019-02-16T22:24:48.694Z,291.00
2019-02-16T22:27:19.345Z,306.83
2019-02-16T22:29:49.888Z,313.63
2019-02-16T22:32:21.040Z,335.87
2019-02-16T22:34:51.653Z,309.63
2019-02-16T22:37:22.165Z,341.60
2019-02-16T22:39:52.771Z,336.77
2019-02-16T22:42:23.528Z,313.43
2019-02-16T22:44:54.034Z,299.20
2019-02-16T22:47:24.663Z,328.70
2019-02-16T22:49:55.358Z,335.33
2019-02-16T22:52:26.014Z,360.70
2019-02-16T22:54:56.597Z,325.53
2019-02-16T22:57:27.423Z,371.60
2019-02-16T22:59:57.958Z,330.03
2019-02-16T23:02:28.601Z,351.50
2019-02-16T23:04:59.279Z,315.37
2019-02-16T23:07:29.883Z,324.90
2019-02-16T23:10:00.600Z,282.67
2019-02-16T23:12:32.849Z,301.30
2019-02-16T23:15:03.455Z,324.93
2019-02-16T23:17:35.317Z,327.47
2019-02-16T23:20:06.991Z,270.70
2019-02-16T23:22:37.773Z,299.20
2019-02-16T23:25:08.893Z,273.07
2019-02-16T23:27:39.562Z,288.43
2019-02-16T23:30:10.501Z,267.83
2019-02-16T23:32:41.274Z,259.43
2019-02-16T23:35:12.339Z,279.07
2019-02-16T23:37:43.020Z,256.13
2019-02-16T23:40:13.669Z,315.57
2019-02-16T23:42:44.247Z,288.90
2019-02-16T23:45:15.120Z,242.83
2019-02-16T23:47:45.741Z,294.10
2019-02-16T23:50:16.554Z,305.90
2019-02-16T23:52:47.220Z,317.17
2019-02-16T23:55:17.846Z,296.23
2019-02-16T23:57:48.659Z,264.07
